sensor_id;sensor_type;location;lat;lon;timestamp;P1;durP1;ratioP1;P2;durP2;ratioP2
10920;SDS011;5513;50.580;8.818;2023-06-04T00:02:07;2.67;;;1.70;;
10920;SDS011;5513;50.580;8.818;2023-06-04T00:04:37;3.20;;;1.60;;
10920;SDS011;5513;50.580;8.818;2023-06-04T00:07:06;3.23;;;1.80;;
10920;SDS011;5513;50.580;8.818;2023-06-04T00:09:36;5.60;;;1.90;;
10920;SDS011;5513;50.580;8.818;2023-06-04T00:12:04;2.77;;;1.80;;
10920;SDS011;5513;50.580;8.818;2023-06-04T00:14:33;2.73;;;1.67;;
10920;SDS011;5513;50.580;8.818;2023-06-04T00:17:02;4.17;;;1.60;;
10920;SDS011;5513;50.580;8.818;2023-06-04T00:19:30;1.93;;;1.73;;
10920;SDS011;5513;50.580;8.818;2023-06-04T00:22:00;3.30;;;1.70;;
10920;SDS011;5513;50.580;8.818;2023-06-04T00:24:29;3.23;;;1.60;;
10920;SDS011;5513;50.580;8.818;2023-06-04T00:26:59;2.03;;;1.67;;
10920;SDS011;5513;50.580;8.818;2023-06-04T00:29:27;3.13;;;1.90;;
10920;SDS011;5513;50.580;8.818;2023-06-04T00:31:56;3.97;;;1.70;;
10920;SDS011;5513;50.580;8.818;2023-06-04T00:34:24;2.80;;;1.97;;
10920;SDS011;5513;50.580;8.818;2023-06-04T00:36:52;2.97;;;1.80;;
10920;SDS011;5513;50.580;8.818;2023-06-04T00:39:20;3.87;;;1.97;;
10920;SDS011;5513;50.580;8.818;2023-06-04T00:41:49;3.10;;;1.80;;
10920;SDS011;5513;50.580;8.818;2023-06-04T00:44:19;4.10;;;1.80;;
10920;SDS011;5513;50.580;8.818;2023-06-04T00:46:51;5.13;;;2.00;;
10920;SDS011;5513;50.580;8.818;2023-06-04T00:49:21;3.60;;;1.87;;
10920;SDS011;5513;50.580;8.818;2023-06-04T00:51:50;2.87;;;1.97;;
10920;SDS011;5513;50.580;8.818;2023-06-04T00:54:18;2.47;;;1.77;;
10920;SDS011;5513;50.580;8.818;2023-06-04T00:56:49;2.83;;;1.83;;
10920;SDS011;5513;50.580;8.818;2023-06-04T00:59:19;3.63;;;2.20;;
10920;SDS011;5513;50.580;8.818;2023-06-04T01:01:48;6.33;;;1.87;;
10920;SDS011;5513;50.580;8.818;2023-06-04T01:04:23;3.60;;;1.77;;
10920;SDS011;5513;50.580;8.818;2023-06-04T01:06:56;5.03;;;1.90;;
10920;SDS011;5513;50.580;8.818;2023-06-04T01:09:26;3.07;;;1.60;;
10920;SDS011;5513;50.580;8.818;2023-06-04T01:11:55;5.13;;;1.90;;
10920;SDS011;5513;50.580;8.818;2023-06-04T01:14:26;2.03;;;1.63;;
10920;SDS011;5513;50.580;8.818;2023-06-04T01:16:56;3.93;;;2.00;;
10920;SDS011;5513;50.580;8.818;2023-06-04T01:19:41;2.67;;;1.77;;
10920;SDS011;5513;50.580;8.818;2023-06-04T01:22:35;2.70;;;1.80;;
10920;SDS011;5513;50.580;8.818;2023-06-04T01:25:09;4.60;;;1.77;;
10920;SDS011;5513;50.580;8.818;2023-06-04T01:27:47;2.67;;;1.77;;
10920;SDS011;5513;50.580;8.818;2023-06-04T01:30:21;3.83;;;2.00;;
10920;SDS011;5513;50.580;8.818;2023-06-04T01:32:53;4.07;;;1.90;;
10920;SDS011;5513;50.580;8.818;2023-06-04T01:35:23;3.87;;;1.90;;
10920;SDS011;5513;50.580;8.818;2023-06-04T01:37:54;5.07;;;1.80;;
10920;SDS011;5513;50.580;8.818;2023-06-04T01:40:23;4.13;;;1.90;;
10920;SDS011;5513;50.580;8.818;2023-06-04T01:42:53;3.53;;;1.93;;
10920;SDS011;5513;50.580;8.818;2023-06-04T01:45:23;3.60;;;2.07;;
10920;SDS011;5513;50.580;8.818;2023-06-04T01:47:53;4.87;;;2.10;;
10920;SDS011;5513;50.580;8.818;2023-06-04T01:50:22;4.03;;;2.00;;
10920;SDS011;5513;50.580;8.818;2023-06-04T01:52:51;3.63;;;1.90;;
10920;SDS011;5513;50.580;8.818;2023-06-04T01:55:20;4.73;;;1.90;;
10920;SDS011;5513;50.580;8.818;2023-06-04T01:57:48;3.80;;;1.70;;
10920;SDS011;5513;50.580;8.818;2023-06-04T02:00:17;3.37;;;1.70;;
10920;SDS011;5513;50.580;8.818;2023-06-04T02:02:47;3.53;;;2.10;;
10920;SDS011;5513;50.580;8.818;2023-06-04T02:05:16;4.37;;;1.80;;
10920;SDS011;5513;50.580;8.818;2023-06-04T02:07:45;3.90;;;2.10;;
10920;SDS011;5513;50.580;8.818;2023-06-04T02:10:15;2.60;;;1.87;;
10920;SDS011;5513;50.580;8.818;2023-06-04T02:15:33;2.93;;;1.80;;
10920;SDS011;5513;50.580;8.818;2023-06-04T02:18:12;5.30;;;2.00;;
10920;SDS011;5513;50.580;8.818;2023-06-04T02:20:44;6.17;;;2.17;;
10920;SDS011;5513;50.580;8.818;2023-06-04T02:23:13;3.27;;;1.80;;
10920;SDS011;5513;50.580;8.818;2023-06-04T02:25:45;2.10;;;1.70;;
10920;SDS011;5513;50.580;8.818;2023-06-04T02:28:15;3.30;;;1.90;;
10920;SDS011;5513;50.580;8.818;2023-06-04T02:30:45;5.17;;;1.87;;
10920;SDS011;5513;50.580;8.818;2023-06-04T02:33:16;2.80;;;1.97;;
10920;SDS011;5513;50.580;8.818;2023-06-04T02:35:45;4.13;;;1.87;;
10920;SDS011;5513;50.580;8.818;2023-06-04T02:38:14;3.97;;;2.00;;
10920;SDS011;5513;50.580;8.818;2023-06-04T02:40:43;4.10;;;2.20;;
10920;SDS011;5513;50.580;8.818;2023-06-04T02:43:12;3.53;;;1.70;;
10920;SDS011;5513;50.580;8.818;2023-06-04T02:45:40;4.50;;;2.10;;
10920;SDS011;5513;50.580;8.818;2023-06-04T02:48:09;2.80;;;2.03;;
10920;SDS011;5513;50.580;8.818;2023-06-04T02:50:38;4.43;;;1.80;;
10920;SDS011;5513;50.580;8.818;2023-06-04T02:53:09;2.43;;;1.87;;
10920;SDS011;5513;50.580;8.818;2023-06-04T02:55:38;5.00;;;1.90;;
10920;SDS011;5513;50.580;8.818;2023-06-04T02:58:06;3.80;;;1.77;;
10920;SDS011;5513;50.580;8.818;2023-06-04T03:00:35;3.50;;;1.83;;
10920;SDS011;5513;50.580;8.818;2023-06-04T03:03:03;3.33;;;2.07;;
10920;SDS011;5513;50.580;8.818;2023-06-04T03:05:32;3.57;;;1.90;;
10920;SDS011;5513;50.580;8.818;2023-06-04T03:08:02;5.53;;;2.00;;
10920;SDS011;5513;50.580;8.818;2023-06-04T03:10:32;6.10;;;1.70;;
10920;SDS011;5513;50.580;8.818;2023-06-04T03:13:05;5.60;;;2.07;;
10920;SDS011;5513;50.580;8.818;2023-06-04T03:15:34;4.80;;;1.67;;
10920;SDS011;5513;50.580;8.818;2023-06-04T03:18:06;4.80;;;1.97;;
10920;SDS011;5513;50.580;8.818;2023-06-04T03:20:34;3.10;;;1.80;;
10920;SDS011;5513;50.580;8.818;2023-06-04T03:23:06;4.00;;;2.20;;
10920;SDS011;5513;50.580;8.818;2023-06-04T03:25:35;3.10;;;2.13;;
10920;SDS011;5513;50.580;8.818;2023-06-04T03:28:03;3.37;;;1.60;;
10920;SDS011;5513;50.580;8.818;2023-06-04T03:30:32;2.17;;;1.77;;
10920;SDS011;5513;50.580;8.818;2023-06-04T03:33:00;6.30;;;1.83;;
10920;SDS011;5513;50.580;8.818;2023-06-04T03:35:29;3.67;;;1.73;;
10920;SDS011;5513;50.580;8.818;2023-06-04T03:37:59;3.53;;;1.90;;
10920;SDS011;5513;50.580;8.818;2023-06-04T03:40:29;5.60;;;2.20;;
10920;SDS011;5513;50.580;8.818;2023-06-04T03:42:58;3.43;;;1.83;;
10920;SDS011;5513;50.580;8.818;2023-06-04T03:45:27;2.80;;;1.77;;
10920;SDS011;5513;50.580;8.818;2023-06-04T03:47:55;6.73;;;1.73;;
10920;SDS011;5513;50.580;8.818;2023-06-04T03:50:27;2.83;;;1.90;;
10920;SDS011;5513;50.580;8.818;2023-06-04T03:52:56;5.30;;;2.23;;
10920;SDS011;5513;50.580;8.818;2023-06-04T03:55:25;3.77;;;1.90;;
10920;SDS011;5513;50.580;8.818;2023-06-04T03:57:55;3.93;;;1.90;;
10920;SDS011;5513;50.580;8.818;2023-06-04T04:00:24;3.83;;;1.60;;
10920;SDS011;5513;50.580;8.818;2023-06-04T04:02:54;6.60;;;2.03;;
10920;SDS011;5513;50.580;8.818;2023-06-04T04:05:23;2.93;;;1.60;;
10920;SDS011;5513;50.580;8.818;2023-06-04T04:07:52;4.37;;;1.80;;
10920;SDS011;5513;50.580;8.818;2023-06-04T04:10:21;2.17;;;1.90;;
10920;SDS011;5513;50.580;8.818;2023-06-04T04:12:49;4.87;;;1.80;;
10920;SDS011;5513;50.580;8.818;2023-06-04T04:15:23;3.50;;;1.87;;
10920;SDS011;5513;50.580;8.818;2023-06-04T04:17:52;6.80;;;1.93;;
10920;SDS011;5513;50.580;8.818;2023-06-04T04:20:20;2.10;;;1.70;;
10920;SDS011;5513;50.580;8.818;2023-06-04T04:22:49;2.73;;;1.80;;
10920;SDS011;5513;50.580;8.818;2023-06-04T04:25:17;2.33;;;1.67;;
10920;SDS011;5513;50.580;8.818;2023-06-04T04:27:45;3.17;;;1.93;;
10920;SDS011;5513;50.580;8.818;2023-06-04T04:30:15;3.37;;;1.87;;
10920;SDS011;5513;50.580;8.818;2023-06-04T04:32:48;3.60;;;1.50;;
10920;SDS011;5513;50.580;8.818;2023-06-04T04:35:16;3.70;;;1.87;;
10920;SDS011;5513;50.580;8.818;2023-06-04T04:37:45;4.87;;;1.97;;
10920;SDS011;5513;50.580;8.818;2023-06-04T04:40:14;3.63;;;1.87;;
10920;SDS011;5513;50.580;8.818;2023-06-04T04:42:43;3.03;;;1.90;;
10920;SDS011;5513;50.580;8.818;2023-06-04T04:45:11;5.10;;;2.00;;
10920;SDS011;5513;50.580;8.818;2023-06-04T04:47:39;2.77;;;1.80;;
10920;SDS011;5513;50.580;8.818;2023-06-04T04:50:10;5.10;;;2.00;;
10920;SDS011;5513;50.580;8.818;2023-06-04T04:52:38;3.00;;;1.90;;
10920;SDS011;5513;50.580;8.818;2023-06-04T04:55:07;3.90;;;1.70;;
10920;SDS011;5513;50.580;8.818;2023-06-04T04:57:38;6.70;;;1.90;;
10920;SDS011;5513;50.580;8.818;2023-06-04T05:00:07;3.60;;;1.80;;
10920;SDS011;5513;50.580;8.818;2023-06-04T05:02:36;8.93;;;2.17;;
10920;SDS011;5513;50.580;8.818;2023-06-04T05:05:05;4.47;;;2.53;;
10920;SDS011;5513;50.580;8.818;2023-06-04T05:07:35;2.43;;;1.70;;
10920;SDS011;5513;50.580;8.818;2023-06-04T05:10:04;3.07;;;1.80;;
10920;SDS011;5513;50.580;8.818;2023-06-04T05:12:33;2.63;;;1.90;;
10920;SDS011;5513;50.580;8.818;2023-06-04T05:15:01;5.63;;;2.30;;
10920;SDS011;5513;50.580;8.818;2023-06-04T05:17:31;3.93;;;2.07;;
10920;SDS011;5513;50.580;8.818;2023-06-04T05:19:59;4.40;;;1.87;;
10920;SDS011;5513;50.580;8.818;2023-06-04T05:22:31;5.67;;;2.00;;
10920;SDS011;5513;50.580;8.818;2023-06-04T05:25:01;3.40;;;2.00;;
10920;SDS011;5513;50.580;8.818;2023-06-04T05:27:30;4.77;;;1.97;;
10920;SDS011;5513;50.580;8.818;2023-06-04T05:29:59;5.30;;;1.90;;
10920;SDS011;5513;50.580;8.818;2023-06-04T05:32:29;4.80;;;1.70;;
10920;SDS011;5513;50.580;8.818;2023-06-04T05:34:59;2.80;;;1.60;;
10920;SDS011;5513;50.580;8.818;2023-06-04T05:37:31;4.77;;;1.90;;
10920;SDS011;5513;50.580;8.818;2023-06-04T05:40:02;5.47;;;2.23;;
10920;SDS011;5513;50.580;8.818;2023-06-04T05:42:32;4.17;;;1.90;;
10920;SDS011;5513;50.580;8.818;2023-06-04T05:45:01;5.67;;;1.87;;
10920;SDS011;5513;50.580;8.818;2023-06-04T05:47:29;3.40;;;1.77;;
10920;SDS011;5513;50.580;8.818;2023-06-04T05:49:58;6.07;;;2.03;;
10920;SDS011;5513;50.580;8.818;2023-06-04T05:52:28;4.20;;;2.00;;
10920;SDS011;5513;50.580;8.818;2023-06-04T05:54:57;4.30;;;2.10;;
10920;SDS011;5513;50.580;8.818;2023-06-04T05:57:27;3.87;;;1.90;;
10920;SDS011;5513;50.580;8.818;2023-06-04T05:59:56;4.93;;;1.70;;
10920;SDS011;5513;50.580;8.818;2023-06-04T06:02:25;4.00;;;1.90;;
10920;SDS011;5513;50.580;8.818;2023-06-04T06:04:53;3.30;;;1.90;;
10920;SDS011;5513;50.580;8.818;2023-06-04T06:07:23;5.90;;;1.97;;
10920;SDS011;5513;50.580;8.818;2023-06-04T06:09:51;2.57;;;1.90;;
10920;SDS011;5513;50.580;8.818;2023-06-04T06:12:19;2.50;;;1.77;;
10920;SDS011;5513;50.580;8.818;2023-06-04T06:14:49;2.50;;;1.80;;
10920;SDS011;5513;50.580;8.818;2023-06-04T06:17:18;3.63;;;1.80;;
10920;SDS011;5513;50.580;8.818;2023-06-04T06:19:46;5.20;;;1.80;;
10920;SDS011;5513;50.580;8.818;2023-06-04T06:22:14;2.70;;;1.90;;
10920;SDS011;5513;50.580;8.818;2023-06-04T06:24:43;2.60;;;1.90;;
10920;SDS011;5513;50.580;8.818;2023-06-04T06:27:11;2.73;;;1.73;;
10920;SDS011;5513;50.580;8.818;2023-06-04T06:29:40;2.67;;;2.17;;
10920;SDS011;5513;50.580;8.818;2023-06-04T06:32:11;3.07;;;1.70;;
10920;SDS011;5513;50.580;8.818;2023-06-04T06:34:39;4.80;;;1.80;;
10920;SDS011;5513;50.580;8.818;2023-06-04T06:37:07;3.40;;;1.80;;
10920;SDS011;5513;50.580;8.818;2023-06-04T06:39:36;3.43;;;1.80;;
10920;SDS011;5513;50.580;8.818;2023-06-04T06:42:05;5.87;;;2.13;;
10920;SDS011;5513;50.580;8.818;2023-06-04T06:44:33;3.00;;;1.90;;
10920;SDS011;5513;50.580;8.818;2023-06-04T06:47:01;4.50;;;1.97;;
10920;SDS011;5513;50.580;8.818;2023-06-04T06:49:31;2.80;;;1.77;;
10920;SDS011;5513;50.580;8.818;2023-06-04T06:52:00;3.27;;;1.57;;
10920;SDS011;5513;50.580;8.818;2023-06-04T06:54:28;3.77;;;1.80;;
10920;SDS011;5513;50.580;8.818;2023-06-04T06:56:56;2.57;;;1.70;;
10920;SDS011;5513;50.580;8.818;2023-06-04T06:59:25;3.90;;;1.70;;
10920;SDS011;5513;50.580;8.818;2023-06-04T07:01:53;4.53;;;1.60;;
10920;SDS011;5513;50.580;8.818;2023-06-04T07:04:22;3.47;;;1.70;;
10920;SDS011;5513;50.580;8.818;2023-06-04T07:06:54;2.30;;;1.80;;
10920;SDS011;5513;50.580;8.818;2023-06-04T07:09:22;3.77;;;1.63;;
10920;SDS011;5513;50.580;8.818;2023-06-04T07:11:51;2.43;;;1.63;;
10920;SDS011;5513;50.580;8.818;2023-06-04T07:14:19;2.10;;;1.57;;
10920;SDS011;5513;50.580;8.818;2023-06-04T07:16:48;3.40;;;1.70;;
10920;SDS011;5513;50.580;8.818;2023-06-04T07:19:16;2.73;;;1.40;;
10920;SDS011;5513;50.580;8.818;2023-06-04T07:21:45;2.03;;;1.50;;
10920;SDS011;5513;50.580;8.818;2023-06-04T07:24:16;2.40;;;1.63;;
10920;SDS011;5513;50.580;8.818;2023-06-04T07:26:44;2.70;;;1.83;;
10920;SDS011;5513;50.580;8.818;2023-06-04T07:29:12;4.77;;;1.73;;
10920;SDS011;5513;50.580;8.818;2023-06-04T07:31:42;2.87;;;1.97;;
10920;SDS011;5513;50.580;8.818;2023-06-04T07:34:10;2.08;;;1.60;;
10920;SDS011;5513;50.580;8.818;2023-06-04T07:36:39;4.27;;;1.60;;
10920;SDS011;5513;50.580;8.818;2023-06-04T07:39:07;3.43;;;1.60;;
10920;SDS011;5513;50.580;8.818;2023-06-04T07:41:37;3.10;;;1.67;;
10920;SDS011;5513;50.580;8.818;2023-06-04T07:44:05;1.92;;;1.60;;
10920;SDS011;5513;50.580;8.818;2023-06-04T07:46:33;3.40;;;1.77;;
10920;SDS011;5513;50.580;8.818;2023-06-04T07:49:02;3.43;;;1.97;;
10920;SDS011;5513;50.580;8.818;2023-06-04T07:51:32;5.23;;;1.80;;
10920;SDS011;5513;50.580;8.818;2023-06-04T07:54:01;2.20;;;1.80;;
10920;SDS011;5513;50.580;8.818;2023-06-04T07:56:29;4.50;;;1.63;;
10920;SDS011;5513;50.580;8.818;2023-06-04T07:58:59;2.80;;;1.77;;
10920;SDS011;5513;50.580;8.818;2023-06-04T08:01:28;4.20;;;1.80;;
10920;SDS011;5513;50.580;8.818;2023-06-04T08:03:56;3.05;;;1.58;;
10920;SDS011;5513;50.580;8.818;2023-06-04T08:06:26;2.90;;;1.95;;
10920;SDS011;5513;50.580;8.818;2023-06-04T08:08:55;5.30;;;1.83;;
10920;SDS011;5513;50.580;8.818;2023-06-04T08:11:23;2.38;;;1.77;;
10920;SDS011;5513;50.580;8.818;2023-06-04T08:13:51;2.30;;;1.70;;
10920;SDS011;5513;50.580;8.818;2023-06-04T08:16:21;3.22;;;2.10;;
10920;SDS011;5513;50.580;8.818;2023-06-04T08:18:49;2.73;;;1.97;;
10920;SDS011;5513;50.580;8.818;2023-06-04T08:21:24;2.53;;;1.80;;
10920;SDS011;5513;50.580;8.818;2023-06-04T08:23:53;6.80;;;2.30;;
10920;SDS011;5513;50.580;8.818;2023-06-04T08:26:22;3.07;;;2.23;;
10920;SDS011;5513;50.580;8.818;2023-06-04T08:28:51;4.97;;;2.70;;
10920;SDS011;5513;50.580;8.818;2023-06-04T08:31:24;3.33;;;2.13;;
10920;SDS011;5513;50.580;8.818;2023-06-04T08:33:53;4.57;;;2.10;;
10920;SDS011;5513;50.580;8.818;2023-06-04T08:36:21;6.10;;;4.35;;
10920;SDS011;5513;50.580;8.818;2023-06-04T08:38:49;3.80;;;3.45;;
10920;SDS011;5513;50.580;8.818;2023-06-04T08:41:21;3.80;;;2.92;;
10920;SDS011;5513;50.580;8.818;2023-06-04T08:43:55;4.75;;;3.60;;
10920;SDS011;5513;50.580;8.818;2023-06-04T08:46:28;4.75;;;3.80;;
10920;SDS011;5513;50.580;8.818;2023-06-04T08:48:59;3.95;;;2.50;;
10920;SDS011;5513;50.580;8.818;2023-06-04T08:51:29;2.60;;;2.40;;
10920;SDS011;5513;50.580;8.818;2023-06-04T08:54:04;3.97;;;3.40;;
10920;SDS011;5513;50.580;8.818;2023-06-04T08:56:33;3.47;;;3.05;;
10920;SDS011;5513;50.580;8.818;2023-06-04T08:59:03;3.45;;;2.60;;
10920;SDS011;5513;50.580;8.818;2023-06-04T09:01:34;2.95;;;2.60;;
10920;SDS011;5513;50.580;8.818;2023-06-04T09:04:04;3.17;;;2.30;;
10920;SDS011;5513;50.580;8.818;2023-06-04T09:06:38;3.92;;;2.90;;
10920;SDS011;5513;50.580;8.818;2023-06-04T09:09:08;3.67;;;2.28;;
10920;SDS011;5513;50.580;8.818;2023-06-04T09:11:40;4.05;;;2.40;;
10920;SDS011;5513;50.580;8.818;2023-06-04T09:14:14;4.35;;;2.38;;
10920;SDS011;5513;50.580;8.818;2023-06-04T09:16:46;3.25;;;2.40;;
10920;SDS011;5513;50.580;8.818;2023-06-04T09:19:16;4.38;;;2.40;;
10920;SDS011;5513;50.580;8.818;2023-06-04T09:21:46;3.45;;;2.40;;
10920;SDS011;5513;50.580;8.818;2023-06-04T09:24:17;4.13;;;2.78;;
10920;SDS011;5513;50.580;8.818;2023-06-04T09:26:45;2.83;;;2.53;;
10920;SDS011;5513;50.580;8.818;2023-06-04T09:29:14;4.22;;;2.70;;
10920;SDS011;5513;50.580;8.818;2023-06-04T09:31:44;4.03;;;2.58;;
10920;SDS011;5513;50.580;8.818;2023-06-04T09:34:27;4.22;;;2.80;;
10920;SDS011;5513;50.580;8.818;2023-06-04T09:36:58;3.50;;;2.50;;
10920;SDS011;5513;50.580;8.818;2023-06-04T09:39:26;2.72;;;2.53;;
10920;SDS011;5513;50.580;8.818;2023-06-04T09:41:58;3.10;;;2.80;;
10920;SDS011;5513;50.580;8.818;2023-06-04T09:44:29;3.28;;;2.70;;
10920;SDS011;5513;50.580;8.818;2023-06-04T09:47:00;4.50;;;2.90;;
10920;SDS011;5513;50.580;8.818;2023-06-04T09:49:28;3.40;;;2.72;;
10920;SDS011;5513;50.580;8.818;2023-06-04T09:51:56;3.95;;;2.53;;
10920;SDS011;5513;50.580;8.818;2023-06-04T09:54:34;3.95;;;2.70;;
10920;SDS011;5513;50.580;8.818;2023-06-04T09:57:04;3.90;;;3.03;;
10920;SDS011;5513;50.580;8.818;2023-06-04T09:59:45;3.67;;;2.80;;
10920;SDS011;5513;50.580;8.818;2023-06-04T10:02:19;4.03;;;2.55;;
10920;SDS011;5513;50.580;8.818;2023-06-04T10:04:49;6.55;;;2.92;;
10920;SDS011;5513;50.580;8.818;2023-06-04T10:07:21;7.22;;;2.90;;
10920;SDS011;5513;50.580;8.818;2023-06-04T10:09:51;3.35;;;2.45;;
10920;SDS011;5513;50.580;8.818;2023-06-04T10:12:21;6.07;;;2.78;;
10920;SDS011;5513;50.580;8.818;2023-06-04T10:14:54;3.97;;;2.67;;
10920;SDS011;5513;50.580;8.818;2023-06-04T10:17:28;3.47;;;2.70;;
10920;SDS011;5513;50.580;8.818;2023-06-04T10:19:58;16.10;;;3.10;;
10920;SDS011;5513;50.580;8.818;2023-06-04T10:22:31;3.30;;;2.70;;
10920;SDS011;5513;50.580;8.818;2023-06-04T10:25:00;4.70;;;2.90;;
10920;SDS011;5513;50.580;8.818;2023-06-04T10:27:30;3.83;;;2.95;;
10920;SDS011;5513;50.580;8.818;2023-06-04T10:29:58;4.68;;;2.63;;
10920;SDS011;5513;50.580;8.818;2023-06-04T10:32:30;4.32;;;2.50;;
10920;SDS011;5513;50.580;8.818;2023-06-04T10:34:59;3.70;;;2.50;;
10920;SDS011;5513;50.580;8.818;2023-06-04T10:37:33;3.22;;;2.50;;
10920;SDS011;5513;50.580;8.818;2023-06-04T10:40:02;3.58;;;2.60;;
10920;SDS011;5513;50.580;8.818;2023-06-04T10:42:37;3.47;;;2.47;;
10920;SDS011;5513;50.580;8.818;2023-06-04T10:45:07;2.60;;;2.40;;
10920;SDS011;5513;50.580;8.818;2023-06-04T10:47:38;2.38;;;2.17;;
10920;SDS011;5513;50.580;8.818;2023-06-04T10:50:08;4.07;;;2.78;;
10920;SDS011;5513;50.580;8.818;2023-06-04T10:52:50;3.65;;;2.28;;
10920;SDS011;5513;50.580;8.818;2023-06-04T10:55:20;4.15;;;2.67;;
10920;SDS011;5513;50.580;8.818;2023-06-04T10:57:53;3.80;;;2.67;;
10920;SDS011;5513;50.580;8.818;2023-06-04T11:00:29;4.53;;;2.63;;
10920;SDS011;5513;50.580;8.818;2023-06-04T11:03:07;5.47;;;2.78;;
10920;SDS011;5513;50.580;8.818;2023-06-04T11:05:37;5.13;;;2.80;;
10920;SDS011;5513;50.580;8.818;2023-06-04T11:08:06;5.63;;;2.92;;
10920;SDS011;5513;50.580;8.818;2023-06-04T11:10:38;5.53;;;3.30;;
10920;SDS011;5513;50.580;8.818;2023-06-04T11:13:08;3.85;;;2.60;;
10920;SDS011;5513;50.580;8.818;2023-06-04T11:15:39;3.45;;;2.70;;
10920;SDS011;5513;50.580;8.818;2023-06-04T11:18:14;5.07;;;3.15;;
10920;SDS011;5513;50.580;8.818;2023-06-04T11:20:45;7.93;;;3.63;;
10920;SDS011;5513;50.580;8.818;2023-06-04T11:23:15;4.93;;;3.03;;
10920;SDS011;5513;50.580;8.818;2023-06-04T11:25:44;5.20;;;2.90;;
10920;SDS011;5513;50.580;8.818;2023-06-04T11:28:14;7.95;;;3.92;;
10920;SDS011;5513;50.580;8.818;2023-06-04T11:30:55;5.35;;;3.50;;
10920;SDS011;5513;50.580;8.818;2023-06-04T11:33:26;3.53;;;3.22;;
10920;SDS011;5513;50.580;8.818;2023-06-04T11:35:54;3.70;;;2.92;;
10920;SDS011;5513;50.580;8.818;2023-06-04T11:38:22;4.35;;;2.78;;
10920;SDS011;5513;50.580;8.818;2023-06-04T11:40:57;3.83;;;3.30;;
10920;SDS011;5513;50.580;8.818;2023-06-04T11:43:28;5.28;;;3.40;;
10920;SDS011;5513;50.580;8.818;2023-06-04T11:45:57;2.65;;;2.40;;
10920;SDS011;5513;50.580;8.818;2023-06-04T11:48:27;3.55;;;2.92;;
10920;SDS011;5513;50.580;8.818;2023-06-04T11:51:04;5.55;;;3.13;;
10920;SDS011;5513;50.580;8.818;2023-06-04T11:53:36;4.20;;;2.92;;
10920;SDS011;5513;50.580;8.818;2023-06-04T11:56:04;5.13;;;2.67;;
10920;SDS011;5513;50.580;8.818;2023-06-04T11:58:34;4.38;;;3.17;;
10920;SDS011;5513;50.580;8.818;2023-06-04T12:01:07;4.85;;;3.00;;
10920;SDS011;5513;50.580;8.818;2023-06-04T12:03:37;5.13;;;3.00;;
10920;SDS011;5513;50.580;8.818;2023-06-04T12:06:14;3.88;;;3.03;;
10920;SDS011;5513;50.580;8.818;2023-06-04T12:08:47;5.97;;;3.25;;
10920;SDS011;5513;50.580;8.818;2023-06-04T12:11:25;4.70;;;2.70;;
10920;SDS011;5513;50.580;8.818;2023-06-04T12:13:56;6.22;;;2.90;;
10920;SDS011;5513;50.580;8.818;2023-06-04T12:16:25;4.07;;;2.78;;
10920;SDS011;5513;50.580;8.818;2023-06-04T12:19:06;4.43;;;3.38;;
10920;SDS011;5513;50.580;8.818;2023-06-04T12:21:35;5.63;;;3.40;;
10920;SDS011;5513;50.580;8.818;2023-06-04T12:24:08;5.03;;;3.35;;
10920;SDS011;5513;50.580;8.818;2023-06-04T12:26:37;3.90;;;3.05;;
10920;SDS011;5513;50.580;8.818;2023-06-04T12:29:07;4.47;;;3.20;;
10920;SDS011;5513;50.580;8.818;2023-06-04T12:31:38;5.93;;;3.42;;
10920;SDS011;5513;50.580;8.818;2023-06-04T12:34:08;4.63;;;3.50;;
10920;SDS011;5513;50.580;8.818;2023-06-04T12:36:38;4.80;;;3.67;;
10920;SDS011;5513;50.580;8.818;2023-06-04T12:39:07;3.88;;;2.72;;
10920;SDS011;5513;50.580;8.818;2023-06-04T12:41:36;4.28;;;3.03;;
10920;SDS011;5513;50.580;8.818;2023-06-04T12:44:04;6.07;;;3.05;;
10920;SDS011;5513;50.580;8.818;2023-06-04T12:46:33;4.70;;;3.08;;
10920;SDS011;5513;50.580;8.818;2023-06-04T12:49:01;5.07;;;3.00;;
10920;SDS011;5513;50.580;8.818;2023-06-04T12:51:31;4.05;;;3.28;;
10920;SDS011;5513;50.580;8.818;2023-06-04T12:54:00;4.07;;;2.90;;
10920;SDS011;5513;50.580;8.818;2023-06-04T12:56:28;4.32;;;3.08;;
10920;SDS011;5513;50.580;8.818;2023-06-04T12:58:58;6.15;;;3.30;;
10920;SDS011;5513;50.580;8.818;2023-06-04T13:01:26;5.13;;;3.30;;
10920;SDS011;5513;50.580;8.818;2023-06-04T13:03:56;4.13;;;2.95;;
10920;SDS011;5513;50.580;8.818;2023-06-04T13:06:24;3.22;;;2.92;;
10920;SDS011;5513;50.580;8.818;2023-06-04T13:08:55;3.83;;;3.42;;
10920;SDS011;5513;50.580;8.818;2023-06-04T13:11:23;5.07;;;3.45;;
10920;SDS011;5513;50.580;8.818;2023-06-04T13:13:52;4.68;;;3.08;;
10920;SDS011;5513;50.580;8.818;2023-06-04T13:16:21;4.10;;;3.30;;
10920;SDS011;5513;50.580;8.818;2023-06-04T13:18:49;6.00;;;3.15;;
10920;SDS011;5513;50.580;8.818;2023-06-04T13:21:18;4.32;;;3.40;;
10920;SDS011;5513;50.580;8.818;2023-06-04T13:23:46;4.35;;;3.45;;
10920;SDS011;5513;50.580;8.818;2023-06-04T13:26:18;3.97;;;3.20;;
10920;SDS011;5513;50.580;8.818;2023-06-04T13:28:48;3.20;;;2.90;;
10920;SDS011;5513;50.580;8.818;2023-06-04T13:31:17;3.72;;;3.40;;
10920;SDS011;5513;50.580;8.818;2023-06-04T13:33:45;3.28;;;2.92;;
10920;SDS011;5513;50.580;8.818;2023-06-04T13:36:14;4.38;;;3.20;;
10920;SDS011;5513;50.580;8.818;2023-06-04T13:38:43;3.40;;;3.10;;
10920;SDS011;5513;50.580;8.818;2023-06-04T13:41:11;5.85;;;3.13;;
10920;SDS011;5513;50.580;8.818;2023-06-04T13:43:41;3.78;;;3.22;;
10920;SDS011;5513;50.580;8.818;2023-06-04T13:46:09;4.43;;;3.35;;
10920;SDS011;5513;50.580;8.818;2023-06-04T13:48:38;4.70;;;3.40;;
10920;SDS011;5513;50.580;8.818;2023-06-04T13:51:08;3.80;;;3.50;;
10920;SDS011;5513;50.580;8.818;2023-06-04T13:53:38;4.30;;;3.25;;
10920;SDS011;5513;50.580;8.818;2023-06-04T13:56:06;5.05;;;3.85;;
10920;SDS011;5513;50.580;8.818;2023-06-04T13:58:34;6.00;;;3.45;;
10920;SDS011;5513;50.580;8.818;2023-06-04T14:01:05;4.10;;;3.35;;
10920;SDS011;5513;50.580;8.818;2023-06-04T14:03:35;5.30;;;3.53;;
10920;SDS011;5513;50.580;8.818;2023-06-04T14:06:04;4.28;;;3.33;;
10920;SDS011;5513;50.580;8.818;2023-06-04T14:08:38;5.80;;;3.65;;
10920;SDS011;5513;50.580;8.818;2023-06-04T14:11:06;6.40;;;3.00;;
10920;SDS011;5513;50.580;8.818;2023-06-04T14:13:35;4.55;;;3.38;;
10920;SDS011;5513;50.580;8.818;2023-06-04T14:16:12;5.13;;;3.50;;
10920;SDS011;5513;50.580;8.818;2023-06-04T14:18:42;4.32;;;3.70;;
10920;SDS011;5513;50.580;8.818;2023-06-04T14:21:12;6.90;;;3.42;;
10920;SDS011;5513;50.580;8.818;2023-06-04T14:23:41;6.28;;;3.08;;
10920;SDS011;5513;50.580;8.818;2023-06-04T14:26:09;5.03;;;3.22;;
10920;SDS011;5513;50.580;8.818;2023-06-04T14:28:40;5.40;;;4.90;;
10920;SDS011;5513;50.580;8.818;2023-06-04T14:31:10;5.70;;;4.85;;
10920;SDS011;5513;50.580;8.818;2023-06-04T14:33:38;5.82;;;4.15;;
10920;SDS011;5513;50.580;8.818;2023-06-04T14:36:06;5.50;;;3.30;;
10920;SDS011;5513;50.580;8.818;2023-06-04T14:38:34;6.22;;;4.53;;
10920;SDS011;5513;50.580;8.818;2023-06-04T14:41:03;7.20;;;3.58;;
10920;SDS011;5513;50.580;8.818;2023-06-04T14:43:32;5.85;;;3.70;;
10920;SDS011;5513;50.580;8.818;2023-06-04T14:46:00;3.95;;;3.15;;
10920;SDS011;5513;50.580;8.818;2023-06-04T14:48:30;3.10;;;2.80;;
10920;SDS011;5513;50.580;8.818;2023-06-04T14:50:59;4.68;;;3.25;;
10920;SDS011;5513;50.580;8.818;2023-06-04T14:53:30;3.72;;;2.95;;
10920;SDS011;5513;50.580;8.818;2023-06-04T14:55:58;3.20;;;2.90;;
10920;SDS011;5513;50.580;8.818;2023-06-04T14:58:27;3.28;;;2.90;;
10920;SDS011;5513;50.580;8.818;2023-06-04T15:00:58;4.95;;;3.13;;
10920;SDS011;5513;50.580;8.818;2023-06-04T15:03:27;2.95;;;2.50;;
10920;SDS011;5513;50.580;8.818;2023-06-04T15:05:57;4.60;;;2.78;;
10920;SDS011;5513;50.580;8.818;2023-06-04T15:08:45;4.28;;;2.75;;
10920;SDS011;5513;50.580;8.818;2023-06-04T15:11:13;3.90;;;2.58;;
10920;SDS011;5513;50.580;8.818;2023-06-04T15:13:42;5.60;;;3.55;;
10920;SDS011;5513;50.580;8.818;2023-06-04T15:16:10;4.82;;;3.20;;
10920;SDS011;5513;50.580;8.818;2023-06-04T15:18:39;4.80;;;3.83;;
10920;SDS011;5513;50.580;8.818;2023-06-04T15:21:09;4.88;;;3.17;;